createdAt,value
2022-10-13T00:01:36.054Z,14.18
2022-10-13T00:06:42.645Z,13.70
2022-10-13T00:11:48.920Z,12.75
2022-10-13T00:16:57.778Z,16.08
2022-10-13T00:22:03.840Z,16.77
2022-10-13T00:27:09.711Z,14.13
2022-10-13T00:32:17.442Z,16.88
2022-10-13T00:37:23.541Z,12.90
2022-10-13T00:42:29.604Z,10.10
2022-10-13T00:47:46.279Z,9.73
2022-10-13T00:52:54.281Z,8.70
2022-10-13T00:58:24.875Z,8.57
2022-10-13T01:03:33.317Z,10.27
2022-10-13T01:08:39.406Z,9.27
2022-10-13T01:13:57.431Z,10.73
2022-10-13T01:19:22.697Z,13.77
2022-10-13T01:24:49.440Z,15.15
2022-10-13T01:30:18.087Z,12.20
2022-10-13T01:35:34.732Z,10.38
2022-10-13T01:40:46.710Z,12.05
2022-10-13T01:46:00.317Z,10.70
2022-10-13T01:51:08.699Z,10.32
2022-10-13T01:56:15.152Z,10.47
2022-10-13T02:01:51.126Z,9.57
2022-10-13T02:07:11.405Z,11.07
2022-10-13T02:12:26.394Z,11.38
2022-10-13T02:17:34.497Z,14.48
2022-10-13T02:22:45.472Z,23.45
2022-10-13T02:27:52.159Z,21.52
2022-10-13T02:32:59.702Z,25.77
2022-10-13T02:38:06.065Z,28.65
2022-10-13T02:43:12.019Z,28.83
2022-10-13T02:48:19.539Z,27.23
2022-10-13T02:53:25.624Z,20.52
2022-10-13T02:58:32.611Z,20.05
2022-10-13T03:03:42.821Z,25.10
2022-10-13T03:08:48.967Z,24.27
2022-10-13T03:13:54.997Z,21.95
2022-10-13T03:19:02.346Z,21.52
2022-10-13T03:24:08.875Z,19.98
2022-10-13T03:29:16.121Z,19.95
2022-10-13T03:34:23.551Z,21.15
2022-10-13T03:39:29.912Z,17.80
2022-10-13T03:44:35.969Z,17.52
2022-10-13T03:49:43.459Z,20.48
2022-10-13T03:54:49.529Z,19.55
2022-10-13T03:59:56.882Z,22.75
2022-10-13T04:05:08.489Z,23.25
2022-10-13T04:10:14.520Z,24.97
2022-10-13T04:15:21.642Z,21.95
2022-10-13T04:20:29.733Z,22.33
2022-10-13T04:25:37.752Z,20.00
2022-10-13T04:30:49.097Z,15.70
2022-10-13T04:35:57.044Z,14.82
2022-10-13T04:41:05.216Z,16.95
2022-10-13T04:46:14.852Z,16.20
2022-10-13T04:51:24.714Z,15.52
2022-10-13T04:56:31.114Z,14.25
2022-10-13T05:01:41.331Z,14.27
2022-10-13T05:07:16.346Z,14.20
2022-10-13T05:12:21.373Z,18.67
2022-10-13T05:17:29.755Z,15.10
2022-10-13T05:22:42.413Z,16.20
2022-10-13T05:27:48.421Z,17.30
2022-10-13T05:32:56.204Z,17.67
2022-10-13T05:38:03.638Z,15.80
2022-10-13T05:43:09.620Z,17.67
2022-10-13T05:48:15.631Z,15.15
2022-10-13T05:53:25.786Z,15.57
2022-10-13T05:58:33.476Z,14.20
2022-10-13T06:03:40.778Z,14.48
2022-10-13T06:08:48.598Z,14.40
2022-10-13T06:13:54.625Z,14.88
2022-10-13T06:19:01.028Z,14.30
2022-10-13T06:24:08.990Z,14.57
2022-10-13T06:29:16.505Z,14.35
2022-10-13T06:34:22.643Z,14.82
2022-10-13T06:39:30.143Z,13.32
2022-10-13T06:44:39.808Z,14.55
2022-10-13T06:49:45.758Z,15.60
2022-10-13T06:54:53.585Z,14.93
2022-10-13T06:59:59.697Z,16.45
2022-10-13T07:05:06.544Z,13.98
2022-10-13T07:10:15.021Z,14.50
2022-10-13T07:15:21.130Z,9.63
2022-10-13T07:20:28.661Z,14.18
2022-10-13T07:25:36.313Z,14.00
2022-10-13T07:30:43.216Z,12.02
2022-10-13T07:35:49.225Z,12.75
2022-10-13T07:40:56.599Z,11.77
2022-10-13T07:46:04.939Z,11.18
2022-10-13T07:51:14.451Z,11.10
2022-10-13T07:56:21.875Z,9.88
2022-10-13T08:01:27.953Z,9.30
2022-10-13T08:06:34.226Z,8.93
2022-10-13T08:11:42.454Z,8.68
2022-10-13T08:16:51.358Z,8.60
2022-10-13T08:22:00.276Z,6.80
2022-10-13T08:27:14.181Z,8.02
2022-10-13T08:32:22.012Z,7.10
2022-10-13T08:37:28.521Z,6.90
2022-10-13T08:42:36.953Z,6.53
2022-10-13T08:47:48.430Z,6.63
2022-10-13T08:52:58.761Z,5.60
2022-10-13T08:58:31.311Z,6.68
2022-10-13T09:03:48.826Z,6.55
2022-10-13T09:08:58.776Z,6.50
2022-10-13T09:14:09.965Z,4.78
2022-10-13T09:19:23.235Z,4.65
2022-10-13T09:24:29.556Z,4.60
2022-10-13T09:29:37.328Z,4.18
2022-10-13T09:34:43.495Z,3.35
2022-10-13T09:40:03.781Z,3.78
2022-10-13T09:45:19.302Z,3.20
2022-10-13T09:50:28.560Z,2.88
2022-10-13T09:55:36.602Z,3.10
2022-10-13T10:00:45.117Z,2.40
2022-10-13T10:05:55.906Z,3.72
2022-10-13T10:11:03.341Z,3.15
2022-10-13T10:16:20.748Z,3.50
2022-10-13T10:21:37.854Z,6.15
2022-10-13T10:26:56.728Z,5.00
2022-10-13T10:32:29.181Z,7.72
2022-10-13T10:38:05.376Z,5.60
2022-10-13T10:43:43.356Z,2.55
2022-10-13T10:48:58.806Z,2.70
2022-10-13T10:54:28.399Z,3.20
2022-10-13T10:59:52.156Z,8.63
2022-10-13T11:05:05.370Z,9.75
2022-10-13T11:10:22.811Z,5.38
2022-10-13T11:15:33.922Z,4.65
2022-10-13T11:21:02.158Z,11.15
2022-10-13T11:26:42.829Z,3.17
2022-10-13T11:31:55.607Z,3.20
2022-10-13T11:37:18.875Z,4.78
2022-10-13T11:43:11.964Z,10.38
2022-10-13T11:48:51.840Z,4.82
2022-10-13T11:54:15.213Z,3.00
2022-10-13T11:59:28.671Z,3.50
2022-10-13T12:04:34.930Z,3.25
2022-10-13T12:09:52.518Z,4.82
2022-10-13T12:15:04.363Z,2.25
2022-10-13T12:20:24.398Z,2.35
2022-10-13T12:25:34.024Z,2.40
2022-10-13T12:30:40.147Z,2.60
2022-10-13T12:35:46.320Z,2.78
2022-10-13T12:40:55.364Z,15.52
2022-10-13T12:46:04.410Z,18.40
2022-10-13T12:51:22.037Z,7.28
2022-10-13T12:56:33.011Z,2.72
2022-10-13T13:01:39.187Z,3.17
2022-10-13T13:06:56.812Z,3.15
2022-10-13T13:12:29.092Z,1.70
2022-10-13T13:17:57.289Z,2.30
2022-10-13T15:36:25.684Z,3.50
2022-10-13T15:41:31.839Z,5.72
2022-10-13T15:46:49.147Z,3.72
2022-10-13T15:52:07.093Z,4.50
2022-10-13T15:57:13.390Z,4.90
2022-10-13T16:02:19.810Z,6.15
2022-10-13T16:07:27.850Z,6.20
2022-10-13T16:12:34.216Z,9.75
2022-10-13T16:17:40.770Z,15.52
2022-10-13T16:22:48.424Z,13.88
2022-10-13T16:27:54.590Z,17.77
2022-10-13T16:33:00.608Z,21.65
2022-10-13T16:38:08.089Z,24.80
2022-10-13T16:43:14.320Z,38.97
2022-10-13T16:48:27.657Z,38.20
2022-10-13T16:53:36.008Z,34.55
2022-10-13T16:58:45.420Z,43.40
2022-10-13T17:03:53.539Z,42.38
2022-10-13T17:09:03.472Z,44.47
2022-10-13T17:14:10.670Z,42.70
2022-10-13T17:19:17.588Z,50.97
2022-10-13T17:24:26.856Z,49.95
2022-10-13T17:29:33.327Z,58.45
2022-10-13T17:34:41.201Z,57.10
2022-10-13T17:39:50.331Z,52.88
2022-10-13T17:44:59.166Z,56.17
2022-10-13T17:50:06.942Z,55.40
2022-10-13T17:55:15.153Z,51.50
2022-10-13T18:00:22.439Z,53.88
2022-10-13T18:05:29.413Z,51.67
2022-10-13T18:11:03.621Z,50.50
2022-10-13T18:16:08.574Z,45.22
2022-10-13T18:21:17.901Z,42.33
2022-10-13T18:26:29.195Z,36.33
2022-10-13T18:31:38.988Z,28.77
2022-10-13T18:36:49.000Z,25.63
2022-10-13T18:41:59.446Z,24.17
2022-10-13T18:47:14.199Z,23.73
2022-10-13T18:52:21.166Z,20.83
2022-10-13T18:57:29.843Z,31.60
2022-10-13T19:02:36.545Z,34.70
2022-10-13T19:07:43.644Z,71.65
2022-10-13T19:12:52.482Z,53.50
2022-10-13T19:17:59.697Z,40.42
2022-10-13T19:23:08.160Z,56.13
2022-10-13T19:28:17.818Z,48.53
2022-10-13T19:33:25.033Z,33.15
2022-10-13T19:38:33.302Z,24.85
2022-10-13T19:43:41.200Z,28.95
2022-10-13T19:48:48.781Z,28.65
2022-10-13T19:53:56.036Z,23.77
2022-10-13T19:59:06.173Z,19.27
2022-10-13T20:04:13.917Z,15.73
2022-10-13T20:09:23.046Z,16.10
2022-10-13T20:14:31.272Z,18.98
2022-10-13T20:19:37.426Z,13.83
2022-10-13T20:24:43.634Z,15.05
2022-10-13T20:29:51.172Z,11.98
2022-10-13T20:34:57.277Z,12.75
2022-10-13T20:40:03.595Z,14.13
2022-10-13T20:45:12.982Z,20.13
2022-10-13T20:50:19.054Z,28.27
2022-10-13T20:55:24.946Z,25.83
2022-10-13T21:00:32.380Z,22.30
2022-10-13T21:05:38.662Z,24.08
2022-10-13T21:10:45.141Z,18.48
2022-10-13T21:15:53.150Z,15.88
2022-10-13T21:21:05.946Z,14.30
2022-10-13T21:26:14.383Z,14.40
2022-10-13T21:31:26.783Z,15.55
2022-10-13T21:36:34.275Z,18.67
